TimeMDT,TemperatureF,Dew PointF,Humidity,Sea Level PressureIn,VisibilityMPH,Wind Direction,Wind SpeedMPH,Gust SpeedMPH,PrecipitationIn,Events,Conditions,WindDirDegrees,DateUTC
12:51 AM,69.8,26.6,20,30.02,10.0,NW,15.0,-,N/A,,Partly Cloudy,320,2012-10-13 06:51:00
1:51 AM,66.9,27.0,22,29.83,10.0,NW,8.1,-,N/A,,Partly Cloudy,310,2012-10-13 07:51:00
2:51 AM,66.0,28.0,24,29.83,10.0,NW,11.5,-,N/A,,Partly Cloudy,310,2012-10-13 08:51:00
3:51 AM,64.9,28.9,26,29.85,10.0,NW,15.0,-,N/A,,Partly Cloudy,310,2012-10-13 09:51:00
4:51 AM,62.6,30.2,30,30.07,10.0,NW,12.7,-,N/A,,Partly Cloudy,310,2012-10-13 10:51:00
5:51 AM,63.0,30.9,30,29.89,10.0,NW,11.5,-,N/A,,Clear,310,2012-10-13 11:51:00
6:51 AM,61.0,32.0,34,29.92,10.0,NW,6.9,-,N/A,,Partly Cloudy,310,2012-10-13 12:51:00
7:51 AM,62.1,32.0,32,29.93,10.0,WNW,4.6,-,N/A,,Clear,300,2012-10-13 13:51:00
8:51 AM,64.4,32.0,30,30.13,10.0,NNW,6.9,-,N/A,,Clear,330,2012-10-13 14:51:00
9:51 AM,66.9,32.0,27,29.95,10.0,North,5.8,-,N/A,,Clear,360,2012-10-13 15:51:00
10:51 AM,69.1,30.9,24,29.96,10.0,NW,11.5,19.6,N/A,,Clear,310,2012-10-13 16:51:00
11:51 AM,69.8,30.2,23,30.13,10.0,NW,10.4,21.9,N/A,,Clear,310,2012-10-13 17:51:00
12:51 PM,72.0,26.1,18,29.93,10.0,WNW,16.1,24.2,N/A,,Clear,290,2012-10-13 18:51:00
1:51 PM,73.9,21.9,14,29.89,10.0,West,12.7,21.9,N/A,,Clear,280,2012-10-13 19:51:00
2:51 PM,75.0,21.9,14,29.88,10.0,West,16.1,19.6,N/A,,Clear,270,2012-10-13 20:51:00
3:51 PM,75.9,21.9,13,29.86,10.0,WNW,12.7,23.0,N/A,,Clear,300,2012-10-13 21:51:00
4:51 PM,75.9,21.9,13,29.87,10.0,WNW,12.7,-,N/A,,Clear,290,2012-10-13 22:51:00
5:51 PM,75.0,21.9,14,29.88,10.0,West,10.4,-,N/A,,Clear,260,2012-10-13 23:51:00
6:51 PM,73.0,21.0,14,29.90,10.0,WNW,6.9,-,N/A,,Clear,290,2012-10-14 00:51:00
7:51 PM,71.6,19.4,14,30.07,10.0,WNW,3.5,-,N/A,,Clear,290,2012-10-14 01:51:00
8:51 PM,71.1,19.9,14,29.93,10.0,Variable,3.5,-,N/A,,Clear,0,2012-10-14 02:51:00
9:51 PM,68.0,21.2,17,30.11,10.0,NNW,4.6,-,N/A,,Clear,340,2012-10-14 03:51:00
10:51 PM,64.4,24.8,22,30.12,10.0,Calm,Calm,-,N/A,,Clear,0,2012-10-14 04:51:00
11:51 PM,60.1,27.0,28,29.98,10.0,NE,5.8,-,N/A,,Clear,40,2012-10-14 05:51:00